Time;durP1;ratioP1;P1;durP2;ratioP2;P2;SDS_P1;SDS_P2;PMS_P1;PMS_P2;Temp;Humidity;BMP_temperature;BMP_pressure;BME280_temperature;BME280_humidity;BME280_pressure;Samples;Min_cycle;Max_cycle;Signal;HPM_P1;HPM_P2
2024/02/01 00:02:19;;;;;;;5.70;0.70;;;;;;;;;;5125932;27;20043;-75
2024/02/01 00:04:49;;;;;;;4.68;0.82;;;;;;;;;;5126681;27;20396;-76
2024/02/01 00:07:20;;;;;;;3.03;0.80;;;;;;;;;;5126303;27;20051;-76
2024/02/01 00:09:52;;;;;;;5.50;0.80;;;;;;;;;;5125383;27;20050;-75
2024/02/01 00:12:23;;;;;;;2.00;0.57;;;;;;;;;;5124241;27;20046;-75
2024/02/01 00:14:53;;;;;;;2.70;0.65;;;;;;;;;;5125868;27;20043;-74
2024/02/01 00:17:24;;;;;;;3.72;0.90;;;;;;;;;;5124501;27;20047;-76
2024/02/01 00:19:54;;;;;;;6.78;0.60;;;;;;;;;;5126637;27;20050;-75
2024/02/01 00:22:25;;;;;;;3.05;0.70;;;;;;;;;;5125671;27;20531;-76
2024/02/01 00:25:03;;;;;;;1.52;0.70;;;;;;;;;;5125641;27;20043;-75
2024/02/01 00:27:35;;;;;;;1.48;0.68;;;;;;;;;;5124304;27;20051;-75
2024/02/01 00:30:07;;;;;;;4.13;1.02;;;;;;;;;;5125642;27;20524;-74
2024/02/01 00:32:37;;;;;;;1.20;0.60;;;;;;;;;;5126146;27;20065;-77
2024/02/01 00:35:09;;;;;;;2.53;0.52;;;;;;;;;;5125452;27;20050;-74
2024/02/01 00:37:39;;;;;;;1.73;0.50;;;;;;;;;;5124564;27;20086;-76
2024/02/01 00:40:11;;;;;;;3.90;0.70;;;;;;;;;;5124779;27;20047;-74
2024/02/01 00:42:41;;;;;;;6.10;0.70;;;;;;;;;;5125297;27;20043;-77
2024/02/01 00:45:11;;;;;;;2.03;0.60;;;;;;;;;;5124194;27;20055;-76
2024/02/01 00:47:42;;;;;;;3.10;0.60;;;;;;;;;;5122835;27;20054;-76
2024/02/01 00:50:13;;;;;;;1.70;0.50;;;;;;;;;;5123094;27;20046;-76
2024/02/01 00:52:44;;;;;;;1.65;0.60;;;;;;;;;;5125067;27;20051;-75
2024/02/01 00:55:14;;;;;;;2.42;0.63;;;;;;;;;;5123537;27;20051;-74
2024/02/01 00:57:46;;;;;;;1.65;0.80;;;;;;;;;;5125175;27;20054;-73
2024/02/01 01:00:16;;;;;;;2.35;0.63;;;;;;;;;;5124757;27;20043;-75
2024/02/01 01:02:47;;;;;;;3.90;0.75;;;;;;;;;;5124991;27;20806;-74
2024/02/01 01:05:17;;;;;;;4.85;1.00;;;;;;;;;;5125063;27;20425;-76
2024/02/01 01:07:49;;;;;;;4.35;0.73;;;;;;;;;;5124884;27;20600;-75
2024/02/01 01:10:21;;;;;;;3.25;0.88;;;;;;;;;;5125060;27;20043;-75
2024/02/01 01:12:52;;;;;;;3.63;0.70;;;;;;;;;;5124815;27;20055;-76
2024/02/01 01:15:22;;;;;;;6.30;0.77;;;;;;;;;;5124620;27;20051;-76
2024/02/01 01:17:54;;;;;;;6.55;1.48;;;;;;;;;;5124923;27;20047;-77
2024/02/01 01:20:24;;;;;;;2.28;0.60;;;;;;;;;;5125343;27;20516;-75
2024/02/01 01:22:55;;;;;;;5.65;0.80;;;;;;;;;;5123260;27;20517;-76
2024/02/01 01:25:25;;;;;;;1.83;0.75;;;;;;;;;;5125083;27;20039;-76
2024/02/01 01:27:56;;;;;;;3.20;0.88;;;;;;;;;;5125059;27;20724;-75
2024/02/01 01:30:28;;;;;;;6.15;0.65;;;;;;;;;;5124760;27;20047;-75
2024/02/01 01:32:59;;;;;;;4.82;0.80;;;;;;;;;;5124098;27;20058;-74
2024/02/01 01:35:29;;;;;;;3.60;0.80;;;;;;;;;;5124777;27;20047;-74
2024/02/01 01:38:00;;;;;;;4.65;0.60;;;;;;;;;;5124769;27;20058;-76
2024/02/01 01:40:32;;;;;;;3.45;0.55;;;;;;;;;;5124216;27;20059;-75
2024/02/01 01:43:04;;;;;;;2.05;0.70;;;;;;;;;;5122721;27;20047;-77
2024/02/01 01:45:34;;;;;;;5.20;0.90;;;;;;;;;;5123991;27;20039;-76
2024/02/01 01:48:05;;;;;;;1.13;0.60;;;;;;;;;;5123994;27;20060;-76
2024/02/01 01:50:37;;;;;;;0.93;0.60;;;;;;;;;;5124203;27;20050;-74
2024/02/01 01:53:08;;;;;;;2.65;0.70;;;;;;;;;;5123363;27;20109;-75
2024/02/01 01:55:39;;;;;;;2.25;1.00;;;;;;;;;;5123667;27;20054;-75
2024/02/01 01:58:09;;;;;;;3.42;0.70;;;;;;;;;;5123889;27;20043;-76
2024/02/01 02:00:41;;;;;;;1.98;0.52;;;;;;;;;;5124036;27;20058;-73
2024/02/01 02:03:12;;;;;;;2.50;0.40;;;;;;;;;;5123797;27;20039;-76
2024/02/01 02:05:43;;;;;;;2.80;0.70;;;;;;;;;;5123678;27;20062;-76
2024/02/01 02:08:15;;;;;;;5.13;0.95;;;;;;;;;;5124027;27;20039;-73
2024/02/01 02:10:45;;;;;;;2.22;0.70;;;;;;;;;;5123440;27;20527;-76
2024/02/01 02:13:16;;;;;;;4.30;0.63;;;;;;;;;;5124325;27;20086;-75
2024/02/01 02:15:47;;;;;;;3.60;0.60;;;;;;;;;;5123841;27;20082;-76
2024/02/01 02:18:20;;;;;;;2.00;0.60;;;;;;;;;;5124168;27;20493;-76
2024/02/01 02:20:52;;;;;;;1.95;0.63;;;;;;;;;;5123296;27;20451;-74
2024/02/01 02:23:23;;;;;;;3.53;0.60;;;;;;;;;;5122925;27;20525;-75
2024/02/01 02:25:54;;;;;;;6.10;1.10;;;;;;;;;;5123259;27;20796;-76
2024/02/01 02:28:25;;;;;;;2.28;0.65;;;;;;;;;;5123381;27;20124;-77
2024/02/01 02:30:56;;;;;;;1.33;0.60;;;;;;;;;;5123478;27;20050;-75
2024/02/01 02:33:27;;;;;;;1.30;0.60;;;;;;;;;;5123299;27;20065;-75
2024/02/01 02:35:57;;;;;;;0.73;0.50;;;;;;;;;;5123137;27;20058;-75
2024/02/01 02:38:28;;;;;;;1.75;0.45;;;;;;;;;;5123104;27;20043;-75
2024/02/01 02:40:59;;;;;;;4.60;1.00;;;;;;;;;;5123608;27;20058;-76
2024/02/01 02:43:32;;;;;;;4.40;1.50;;;;;;;;;;5123505;27;20410;-74
2024/02/01 02:46:03;;;;;;;4.43;0.63;;;;;;;;;;5122769;27;20055;-76
2024/02/01 02:48:39;;;;;;;3.50;0.90;;;;;;;;;;5122820;27;20055;-76
2024/02/01 02:51:11;;;;;;;4.05;0.70;;;;;;;;;;5123168;27;20043;-75
2024/02/01 02:53:42;;;;;;;3.90;0.80;;;;;;;;;;5123109;27;20592;-74
2024/02/01 02:56:12;;;;;;;5.90;0.70;;;;;;;;;;5122979;28;20054;-76
2024/02/01 02:58:44;;;;;;;5.70;0.75;;;;;;;;;;5122634;28;20043;-75
2024/02/01 03:01:15;;;;;;;5.80;0.73;;;;;;;;;;5123208;28;20039;-74
2024/02/01 03:03:44;;;;;;;5.55;1.00;;;;;;;;;;5123229;28;20409;-75
2024/02/01 03:06:15;;;;;;;1.35;0.60;;;;;;;;;;5122943;28;20494;-75
2024/02/01 03:08:47;;;;;;;3.03;1.00;;;;;;;;;;5123040;28;20043;-75
2024/02/01 03:11:18;;;;;;;4.97;0.80;;;;;;;;;;5122339;28;20049;-75
2024/02/01 03:13:49;;;;;;;1.73;0.50;;;;;;;;;;5122351;28;20513;-74
2024/02/01 03:16:20;;;;;;;3.38;0.70;;;;;;;;;;5122889;27;20058;-78
2024/02/01 03:18:52;;;;;;;2.63;0.82;;;;;;;;;;5126972;27;20047;-74
2024/02/01 03:21:25;;;;;;;5.72;0.70;;;;;;;;;;5125685;27;20058;-74
2024/02/01 03:23:58;;;;;;;7.22;1.00;;;;;;;;;;5127461;27;20047;-75
2024/02/01 03:26:34;;;;;;;4.00;0.80;;;;;;;;;;5126903;27;20054;-75
2024/02/01 03:29:05;;;;;;;3.03;0.77;;;;;;;;;;5126375;27;20054;-75
2024/02/01 03:31:37;;;;;;;2.88;0.93;;;;;;;;;;5126911;27;20051;-76
2024/02/01 03:34:10;;;;;;;5.43;0.80;;;;;;;;;;5126310;27;20101;-76
2024/02/01 03:36:41;;;;;;;1.58;0.70;;;;;;;;;;5127939;27;20513;-74
2024/02/01 03:39:23;;;;;;;3.90;0.80;;;;;;;;;;5127416;27;20050;-75
2024/02/01 03:41:55;;;;;;;5.50;0.82;;;;;;;;;;5126084;27;20059;-74
2024/02/01 03:44:26;;;;;;;3.70;1.08;;;;;;;;;;5126398;27;20058;-75
2024/02/01 03:46:57;;;;;;;2.67;1.20;;;;;;;;;;5126296;27;20417;-74
2024/02/01 03:49:27;;;;;;;4.00;0.88;;;;;;;;;;5126467;27;20043;-74
2024/02/01 03:52:00;;;;;;;4.43;1.35;;;;;;;;;;5126355;27;20425;-76
2024/02/01 03:54:31;;;;;;;2.33;0.63;;;;;;;;;;5126673;27;20065;-74
2024/02/01 03:57:02;;;;;;;5.65;0.70;;;;;;;;;;5126042;27;20042;-75
2024/02/01 03:59:32;;;;;;;0.80;0.52;;;;;;;;;;5126001;27;20035;-76
2024/02/01 04:02:13;;;;;;;1.65;0.80;;;;;;;;;;5126213;27;20047;-76
2024/02/01 04:04:47;;;;;;;3.40;0.70;;;;;;;;;;5126877;27;20055;-74
2024/02/01 04:07:18;;;;;;;3.38;0.85;;;;;;;;;;5125403;27;20755;-76
2024/02/01 04:09:50;;;;;;;1.63;0.70;;;;;;;;;;5127128;27;20050;-75
2024/02/01 04:12:21;;;;;;;4.22;0.90;;;;;;;;;;5126144;27;20055;-75
2024/02/01 04:14:51;;;;;;;2.72;0.90;;;;;;;;;;5131540;27;20046;-74
2024/02/01 04:17:22;;;;;;;1.58;0.77;;;;;;;;;;5131798;27;20047;-75
2024/02/01 04:19:53;;;;;;;2.88;0.88;;;;;;;;;;5131912;27;20048;-75
2024/02/01 04:22:25;;;;;;;4.75;0.73;;;;;;;;;;5128480;27;20513;-74
2024/02/01 04:24:55;;;;;;;1.80;0.70;;;;;;;;;;5126323;27;20498;-74
2024/02/01 04:27:25;;;;;;;3.47;0.93;;;;;;;;;;5125502;27;20051;-75
2024/02/01 04:29:56;;;;;;;4.50;1.00;;;;;;;;;;5124574;27;20398;-73
2024/02/01 04:32:27;;;;;;;1.90;1.10;;;;;;;;;;5125331;27;20491;-74
2024/02/01 04:34:58;;;;;;;1.27;0.60;;;;;;;;;;5126209;27;20066;-75
2024/02/01 04:37:28;;;;;;;4.28;1.10;;;;;;;;;;5126188;27;20062;-76
2024/02/01 04:40:03;;;;;;;1.00;0.70;;;;;;;;;;5125375;27;20051;-74
2024/02/01 04:42:35;;;;;;;4.13;1.10;;;;;;;;;;5126078;27;20070;-73
2024/02/01 04:45:08;;;;;;;4.80;0.88;;;;;;;;;;5125262;27;20402;-74
2024/02/01 04:47:39;;;;;;;2.67;0.70;;;;;;;;;;5125618;27;20043;-75
2024/02/01 04:50:11;;;;;;;3.45;0.85;;;;;;;;;;5125865;27;20039;-76
2024/02/01 04:52:42;;;;;;;3.67;0.85;;;;;;;;;;5125483;27;20047;-75
2024/02/01 04:55:12;;;;;;;4.50;1.02;;;;;;;;;;5122916;27;20062;-76
2024/02/01 04:57:42;;;;;;;2.65;0.60;;;;;;;;;;5125315;27;20046;-76
2024/02/01 05:00:14;;;;;;;1.67;0.70;;;;;;;;;;5125116;27;20564;-75
2024/02/01 05:02:47;;;;;;;0.82;0.60;;;;;;;;;;5124923;27;20517;-74
2024/02/01 05:05:18;;;;;;;4.68;0.80;;;;;;;;;;5125224;27;20066;-75
2024/02/01 05:07:48;;;;;;;6.07;0.95;;;;;;;;;;5124821;27;20058;-74
2024/02/01 05:10:18;;;;;;;0.70;0.70;;;;;;;;;;5122779;27;20055;-75
2024/02/01 05:12:53;;;;;;;4.90;1.23;;;;;;;;;;5124930;27;20051;-76
2024/02/01 05:15:23;;;;;;;4.25;1.10;;;;;;;;;;5125240;27;20043;-77
2024/02/01 05:17:53;;;;;;;1.40;0.70;;;;;;;;;;5125102;27;20051;-74
2024/02/01 05:20:25;;;;;;;0.77;0.70;;;;;;;;;;5124399;27;20039;-75
2024/02/01 05:22:56;;;;;;;3.85;0.82;;;;;;;;;;5124572;27;20043;-77
2024/02/01 05:25:28;;;;;;;3.05;1.10;;;;;;;;;;5124888;27;20043;-76
2024/02/01 05:27:59;;;;;;;2.70;0.68;;;;;;;;;;5124779;27;20051;-75
2024/02/01 05:30:29;;;;;;;3.22;1.10;;;;;;;;;;5125176;27;20070;-75
2024/02/01 05:33:00;;;;;;;3.42;0.70;;;;;;;;;;5123685;27;20490;-75
2024/02/01 05:35:33;;;;;;;1.65;1.00;;;;;;;;;;5124683;27;20047;-75
2024/02/01 05:38:06;;;;;;;6.38;1.00;;;;;;;;;;5122837;27;20046;-74
2024/02/01 05:40:37;;;;;;;1.48;0.68;;;;;;;;;;5123930;27;20070;-76
2024/02/01 05:43:12;;;;;;;0.77;0.60;;;;;;;;;;5124192;27;20051;-75
2024/02/01 05:45:43;;;;;;;0.73;0.60;;;;;;;;;;5124359;27;20050;-75
2024/02/01 05:48:14;;;;;;;4.65;1.00;;;;;;;;;;5123783;27;20039;-75
2024/02/01 05:50:44;;;;;;;0.73;0.60;;;;;;;;;;5124222;27;20039;-75
2024/02/01 05:53:14;;;;;;;8.43;1.00;;;;;;;;;;5123790;27;20066;-75
2024/02/01 05:55:47;;;;;;;2.05;0.70;;;;;;;;;;5123896;27;20054;-76
2024/02/01 05:58:17;;;;;;;2.20;0.60;;;;;;;;;;5123626;27;20057;-76
2024/02/01 06:00:47;;;;;;;7.32;1.00;;;;;;;;;;5123865;27;20043;-74
2024/02/01 06:03:18;;;;;;;0.85;0.82;;;;;;;;;;5124199;27;20425;-74
2024/02/01 06:05:50;;;;;;;2.53;0.70;;;;;;;;;;5122809;27;20047;-76
2024/02/01 06:08:20;;;;;;;1.63;0.80;;;;;;;;;;5123802;27;20502;-76
2024/02/01 06:10:50;;;;;;;6.50;0.82;;;;;;;;;;5122215;27;20043;-74
2024/02/01 06:13:21;;;;;;;1.70;0.80;;;;;;;;;;5123301;27;20058;-73
2024/02/01 06:15:53;;;;;;;3.13;0.77;;;;;;;;;;5123692;27;20054;-75
2024/02/01 06:18:25;;;;;;;3.08;0.65;;;;;;;;;;5123563;27;20046;-76
2024/02/01 06:20:56;;;;;;;4.57;0.73;;;;;;;;;;5123215;27;20050;-76
2024/02/01 06:23:26;;;;;;;1.08;0.60;;;;;;;;;;5123120;27;20047;-76
2024/02/01 06:25:59;;;;;;;2.75;1.00;;;;;;;;;;5123251;27;20561;-74
2024/02/01 06:28:29;;;;;;;5.88;1.00;;;;;;;;;;5121284;27;20062;-76
2024/02/01 06:30:59;;;;;;;2.95;0.85;;;;;;;;;;5122988;27;20047;-75
2024/02/01 06:33:31;;;;;;;3.10;1.35;;;;;;;;;;5123679;27;20383;-75
2024/02/01 06:36:02;;;;;;;1.30;0.88;;;;;;;;;;5123915;27;20050;-75
2024/02/01 06:38:45;;;;;;;1.88;0.70;;;;;;;;;;5123626;27;20619;-76
2024/02/01 06:41:27;;;;;;;3.00;0.80;;;;;;;;;;5122995;27;20063;-75
2024/02/01 06:44:09;;;;;;;1.63;0.98;;;;;;;;;;5123207;27;20410;-73
2024/02/01 06:55:43;;;;;;;2.20;1.20;;;;;;;;;;5123392;27;20409;-75
2024/02/01 06:57:47;;;;;;;1.00;0.80;;;;;;;;;;5112312;28;20535;-76
2024/02/01 07:08:26;;;;;;;1.67;0.98;;;;;;;;;;5122929;28;20043;-75
2024/02/01 07:11:03;;;;;;;0.88;0.70;;;;;;;;;;5123046;28;20043;-75
2024/02/01 07:16:25;;;;;;;2.05;0.70;;;;;;;;;;5123154;28;20043;-76
2024/02/01 07:19:23;;;;;;;1.98;0.85;;;;;;;;;;5120797;28;20110;-76
2024/02/01 07:25:33;;;;;;;0.98;0.70;;;;;;;;;;5122947;28;20043;-76
2024/02/01 07:58:24;;;;;;;1.73;0.80;;;;;;;;;;5123125;28;20054;-75
2024/02/01 08:00:56;;;;;;;4.18;0.85;;;;;;;;;;5122766;28;20046;-73
2024/02/01 08:08:50;;;;;;;3.05;0.60;;;;;;;;;;5126225;27;20043;-76
2024/02/01 08:11:21;;;;;;;3.55;0.60;;;;;;;;;;5126147;27;20055;-76
2024/02/01 08:13:51;;;;;;;4.22;1.00;;;;;;;;;;5126610;27;20043;-76
2024/02/01 08:16:22;;;;;;;2.20;1.00;;;;;;;;;;5126300;27;20051;-76
2024/02/01 08:18:54;;;;;;;0.80;0.80;;;;;;;;;;5124697;27;20054;-75
2024/02/01 08:21:26;;;;;;;1.63;0.93;;;;;;;;;;5126703;27;20046;-76
2024/02/01 08:23:58;;;;;;;0.90;0.90;;;;;;;;;;5125983;27;20035;-73
2024/02/01 08:26:37;;;;;;;1.50;1.20;;;;;;;;;;5125602;27;20071;-75
2024/02/01 08:29:10;;;;;;;1.42;0.82;;;;;;;;;;5125425;27;20050;-76
2024/02/01 08:31:41;;;;;;;3.10;0.80;;;;;;;;;;5125558;27;20043;-75
2024/02/01 08:34:14;;;;;;;1.00;0.52;;;;;;;;;;5125215;27;20056;-76
2024/02/01 08:36:45;;;;;;;2.58;0.57;;;;;;;;;;5125917;27;20493;-74
2024/02/01 08:39:15;;;;;;;2.58;0.80;;;;;;;;;;5125437;27;20039;-74
2024/02/01 08:41:47;;;;;;;1.45;0.80;;;;;;;;;;5124793;27;20051;-74
2024/02/01 08:44:19;;;;;;;0.52;0.52;;;;;;;;;;5125425;27;20047;-74
2024/02/01 08:46:51;;;;;;;3.20;0.70;;;;;;;;;;5125157;27;20070;-75
2024/02/01 08:49:22;;;;;;;2.75;0.60;;;;;;;;;;5125642;27;20043;-73
2024/02/01 08:51:53;;;;;;;0.80;0.65;;;;;;;;;;5125957;27;20101;-75
2024/02/01 08:54:24;;;;;;;1.00;0.90;;;;;;;;;;5123790;27;20421;-76
2024/02/01 08:56:55;;;;;;;2.83;0.50;;;;;;;;;;5125539;27;20054;-75
2024/02/01 08:59:25;;;;;;;1.83;1.13;;;;;;;;;;5125159;27;20074;-75
2024/02/01 09:01:57;;;;;;;3.78;1.05;;;;;;;;;;5124840;27;20051;-75
2024/02/01 09:04:28;;;;;;;1.70;0.90;;;;;;;;;;5124954;27;20529;-75
2024/02/01 09:06:58;;;;;;;5.57;0.80;;;;;;;;;;5125150;27;20043;-75
2024/02/01 09:09:29;;;;;;;3.40;1.00;;;;;;;;;;5125313;27;20047;-75
2024/02/01 09:11:59;;;;;;;0.50;0.50;;;;;;;;;;5124605;27;20055;-75
2024/02/01 09:14:33;;;;;;;6.45;0.80;;;;;;;;;;5123734;27;20050;-75
2024/02/01 09:17:04;;;;;;;1.98;1.20;;;;;;;;;;5124549;27;20039;-74
2024/02/01 09:19:35;;;;;;;5.75;1.63;;;;;;;;;;5124726;27;20047;-74
2024/02/01 09:22:08;;;;;;;6.13;1.15;;;;;;;;;;5125322;27;20043;-75
2024/02/01 09:24:39;;;;;;;3.53;1.00;;;;;;;;;;5125659;27;20054;-75
2024/02/01 09:27:09;;;;;;;3.75;1.20;;;;;;;;;;5123166;27;20066;-73
2024/02/01 09:29:43;;;;;;;2.85;1.35;;;;;;;;;;5124383;27;20494;-75
2024/02/01 09:32:15;;;;;;;5.97;1.50;;;;;;;;;;5125123;27;20046;-73
2024/02/01 09:34:46;;;;;;;9.40;1.50;;;;;;;;;;5124810;27;20051;-76
2024/02/01 09:37:22;;;;;;;4.55;1.40;;;;;;;;;;5124690;27;20043;-76
2024/02/01 09:40:00;;;;;;;8.27;1.20;;;;;;;;;;5124044;27;20053;-76
2024/02/01 09:42:33;;;;;;;9.35;1.40;;;;;;;;;;5124498;27;20109;-76
2024/02/01 09:45:05;;;;;;;4.53;1.40;;;;;;;;;;5124034;27;20070;-75
2024/02/01 09:47:46;;;;;;;2.22;1.48;;;;;;;;;;5123738;27;20043;-75
2024/02/01 09:50:20;;;;;;;2.65;1.33;;;;;;;;;;5124272;27;20044;-75
2024/02/01 09:52:52;;;;;;;5.93;2.03;;;;;;;;;;5124844;27;20604;-75
2024/02/01 09:55:25;;;;;;;2.92;1.73;;;;;;;;;;5123379;27;20066;-75
2024/02/01 09:57:55;;;;;;;5.80;2.00;;;;;;;;;;5123785;27;20043;-78
2024/02/01 10:00:27;;;;;;;13.02;2.33;;;;;;;;;;5124290;27;20418;-76
2024/02/01 10:02:58;;;;;;;12.15;2.25;;;;;;;;;;5123894;27;20050;-76
2024/02/01 10:05:32;;;;;;;11.32;2.33;;;;;;;;;;5123831;27;20062;-74
2024/02/01 10:08:15;;;;;;;11.38;2.00;;;;;;;;;;5124203;27;20039;-76
2024/02/01 10:10:48;;;;;;;14.38;3.65;;;;;;;;;;5124436;27;20611;-79
2024/02/01 10:13:30;;;;;;;7.68;1.90;;;;;;;;;;5123581;27;20050;-77
2024/02/01 10:16:02;;;;;;;16.67;1.70;;;;;;;;;;5123978;27;20043;-76
2024/02/01 10:18:33;;;;;;;13.23;1.88;;;;;;;;;;5123503;27;20051;-76
2024/02/01 10:21:21;;;;;;;15.30;1.67;;;;;;;;;;5123226;27;20039;-74
2024/02/01 10:24:05;;;;;;;10.82;2.13;;;;;;;;;;5121968;27;20058;-73
2024/02/01 10:26:39;;;;;;;8.80;1.30;;;;;;;;;;5122139;27;20039;-78
2024/02/01 10:29:17;;;;;;;6.65;2.60;;;;;;;;;;5123169;27;20090;-78
2024/02/01 10:31:52;;;;;;;10.98;1.80;;;;;;;;;;5122122;27;20046;-74
2024/02/01 10:34:26;;;;;;;8.52;1.80;;;;;;;;;;5123415;27;20051;-74
2024/02/01 10:37:01;;;;;;;51.65;2.15;;;;;;;;;;5122838;27;20043;-74
2024/02/01 10:39:38;;;;;;;35.22;2.03;;;;;;;;;;5123192;27;20069;-74
2024/02/01 10:42:12;;;;;;;5.85;2.00;;;;;;;;;;5123285;27;20062;-75
2024/02/01 10:44:45;;;;;;;3.83;1.60;;;;;;;;;;5121731;27;20061;-74
2024/02/01 10:47:22;;;;;;;3.00;1.42;;;;;;;;;;5123858;27;20035;-75
2024/02/01 10:49:55;;;;;;;6.30;2.42;;;;;;;;;;5122079;27;20054;-75
2024/02/01 10:52:27;;;;;;;6.05;2.28;;;;;;;;;;5122606;27;20493;-74
2024/02/01 10:54:57;;;;;;;3.67;1.35;;;;;;;;;;5122761;27;20505;-80
2024/02/01 10:57:29;;;;;;;4.05;1.42;;;;;;;;;;5122667;27;20493;-78
2024/02/01 11:00:00;;;;;;;4.32;1.17;;;;;;;;;;5122955;27;20043;-74
2024/02/01 11:02:31;;;;;;;1.52;1.10;;;;;;;;;;5122879;27;20047;-76
2024/02/01 11:05:08;;;;;;;4.88;1.20;;;;;;;;;;5122908;28;20047;-75
2024/02/01 11:07:40;;;;;;;4.70;1.20;;;;;;;;;;5122621;28;20051;-75
2024/02/01 11:10:15;;;;;;;7.55;1.65;;;;;;;;;;5122214;28;20058;-74
2024/02/01 11:12:54;;;;;;;3.30;1.30;;;;;;;;;;5122869;27;20044;-76
2024/02/01 11:15:26;;;;;;;13.13;3.25;;;;;;;;;;5122593;28;20054;-74
2024/02/01 11:18:11;;;;;;;4.20;1.15;;;;;;;;;;5123723;28;20125;-75
2024/02/01 11:20:57;;;;;;;3.55;1.50;;;;;;;;;;5123109;27;20050;-73
2024/02/01 11:23:38;;;;;;;8.32;2.45;;;;;;;;;;5122728;27;20054;-76
2024/02/01 11:26:15;;;;;;;7.88;1.50;;;;;;;;;;5122445;28;20043;-75
2024/02/01 11:28:48;;;;;;;6.28;1.40;;;;;;;;;;5122331;27;20098;-74
2024/02/01 11:31:19;;;;;;;3.00;1.30;;;;;;;;;;5121928;28;20901;-76
2024/02/01 11:34:05;;;;;;;1.38;0.90;;;;;;;;;;5122252;27;20043;-77
2024/02/01 11:36:37;;;;;;;2.10;0.85;;;;;;;;;;5121379;28;20414;-76
2024/02/01 11:39:13;;;;;;;3.08;0.95;;;;;;;;;;5125774;27;20797;-75
2024/02/01 11:41:48;;;;;;;8.40;1.48;;;;;;;;;;5125731;27;20066;-77
2024/02/01 11:44:19;;;;;;;2.20;1.35;;;;;;;;;;5126662;27;20042;-77
2024/02/01 11:46:52;;;;;;;2.78;0.95;;;;;;;;;;5127430;27;20050;-75
2024/02/01 11:49:25;;;;;;;6.70;1.02;;;;;;;;;;5126236;27;20510;-74
2024/02/01 11:52:13;;;;;;;6.47;1.05;;;;;;;;;;5126771;27;20047;-77
2024/02/01 11:54:49;;;;;;;2.70;0.93;;;;;;;;;;5126333;27;20066;-76
2024/02/01 11:57:21;;;;;;;3.40;1.25;;;;;;;;;;5126676;27;20051;-74
2024/02/01 11:59:56;;;;;;;8.38;1.10;;;;;;;;;;5126811;27;20517;-75
2024/02/01 12:02:30;;;;;;;4.07;0.75;;;;;;;;;;5126043;27;20053;-77
2024/02/01 12:05:05;;;;;;;5.55;1.58;;;;;;;;;;5125701;27;20402;-77
2024/02/01 12:07:36;;;;;;;4.28;1.38;;;;;;;;;;5126155;27;20065;-74
2024/02/01 12:10:12;;;;;;;3.53;0.80;;;;;;;;;;5126504;27;20482;-74
2024/02/01 12:12:46;;;;;;;5.22;1.00;;;;;;;;;;5125843;27;20054;-77
2024/02/01 12:15:17;;;;;;;8.25;1.08;;;;;;;;;;5125875;27;20043;-75
2024/02/01 12:17:50;;;;;;;7.85;1.05;;;;;;;;;;5126035;27;20043;-76
2024/02/01 12:20:28;;;;;;;6.88;1.80;;;;;;;;;;5126182;27;20039;-75
2024/02/01 12:23:03;;;;;;;6.00;1.55;;;;;;;;;;5125987;27;20046;-75
2024/02/01 12:25:33;;;;;;;3.60;1.13;;;;;;;;;;5126007;27;20884;-73
2024/02/01 12:28:09;;;;;;;3.75;0.80;;;;;;;;;;5125583;27;20497;-75
2024/02/01 12:30:48;;;;;;;5.70;1.20;;;;;;;;;;5125543;27;20050;-77
2024/02/01 12:33:19;;;;;;;4.53;0.90;;;;;;;;;;5125593;27;20039;-77
2024/02/01 12:35:50;;;;;;;2.28;0.98;;;;;;;;;;5125778;27;20051;-80
2024/02/01 12:38:20;;;;;;;6.78;0.95;;;;;;;;;;5125601;27;20047;-75
2024/02/01 12:40:51;;;;;;;12.77;1.33;;;;;;;;;;5125698;27;20055;-76
2024/02/01 12:43:24;;;;;;;3.60;0.70;;;;;;;;;;5125770;27;20043;-74
2024/02/01 12:45:54;;;;;;;2.80;0.95;;;;;;;;;;5125387;27;20489;-75
2024/02/01 12:48:25;;;;;;;3.60;0.98;;;;;;;;;;5124593;27;20370;-76
2024/02/01 12:50:55;;;;;;;6.85;1.23;;;;;;;;;;5124551;27;20062;-75
2024/02/01 12:53:26;;;;;;;3.63;0.80;;;;;;;;;;5124971;27;20080;-74
2024/02/01 12:55:57;;;;;;;6.68;0.80;;;;;;;;;;5126023;27;20054;-76
2024/02/01 12:58:28;;;;;;;3.70;0.75;;;;;;;;;;5125881;27;20784;-74
2024/02/01 13:00:59;;;;;;;3.03;0.70;;;;;;;;;;5125640;27;20066;-79
2024/02/01 13:03:29;;;;;;;1.75;0.82;;;;;;;;;;5125644;27;20043;-76
2024/02/01 13:05:59;;;;;;;3.40;0.70;;;;;;;;;;5124838;27;20043;-77
2024/02/01 13:08:39;;;;;;;5.03;0.80;;;;;;;;;;5124791;27;20039;-75
2024/02/01 13:11:11;;;;;;;1.75;0.90;;;;;;;;;;5124467;27;20498;-75
2024/02/01 13:13:42;;;;;;;8.13;2.95;;;;;;;;;;5124560;27;20051;-75
2024/02/01 13:16:15;;;;;;;6.75;0.90;;;;;;;;;;5124753;27;20520;-76
2024/02/01 13:18:45;;;;;;;4.90;1.05;;;;;;;;;;5124959;27;20039;-75
2024/02/01 13:21:16;;;;;;;2.35;1.10;;;;;;;;;;5124853;27;20047;-75
2024/02/01 13:23:47;;;;;;;2.33;0.70;;;;;;;;;;5124867;27;20043;-76
2024/02/01 13:26:18;;;;;;;3.00;0.80;;;;;;;;;;5124557;27;20054;-74
2024/02/01 13:28:49;;;;;;;7.00;0.80;;;;;;;;;;5124798;27;20047;-75
2024/02/01 13:31:21;;;;;;;3.58;0.93;;;;;;;;;;5124412;27;20039;-75
2024/02/01 13:33:52;;;;;;;2.03;0.70;;;;;;;;;;5125883;27;20512;-76
2024/02/01 13:36:24;;;;;;;3.22;0.80;;;;;;;;;;5122064;27;20066;-77
2024/02/01 13:38:54;;;;;;;6.47;0.70;;;;;;;;;;5123673;27;20050;-83
2024/02/01 13:41:25;;;;;;;4.20;0.90;;;;;;;;;;5123118;27;20051;-81
2024/02/01 13:43:58;;;;;;;1.77;0.82;;;;;;;;;;5121642;27;20058;-75
2024/02/01 13:46:29;;;;;;;7.32;0.90;;;;;;;;;;5121349;27;20051;-76
2024/02/01 13:49:02;;;;;;;4.32;1.00;;;;;;;;;;5121710;27;20043;-75
2024/02/01 13:51:33;;;;;;;2.83;0.98;;;;;;;;;;5121324;27;20047;-77
2024/02/01 13:54:05;;;;;;;3.00;0.90;;;;;;;;;;5121018;27;20043;-76
2024/02/01 13:56:35;;;;;;;6.45;0.98;;;;;;;;;;5121186;27;20038;-76
2024/02/01 13:59:05;;;;;;;3.80;0.90;;;;;;;;;;5121516;27;20050;-76
2024/02/01 14:01:37;;;;;;;1.48;0.93;;;;;;;;;;5120651;27;20054;-76
2024/02/01 14:04:09;;;;;;;2.50;0.93;;;;;;;;;;5120801;27;20622;-80
2024/02/01 14:06:39;;;;;;;7.05;1.00;;;;;;;;;;5119505;27;20101;-75
2024/02/01 14:09:10;;;;;;;3.75;1.00;;;;;;;;;;5121281;27;20070;-75
2024/02/01 14:11:41;;;;;;;5.63;1.00;;;;;;;;;;5121265;27;20050;-76
2024/02/01 14:14:12;;;;;;;4.38;1.08;;;;;;;;;;5120567;27;20047;-77
2024/02/01 14:16:43;;;;;;;4.20;1.10;;;;;;;;;;5120992;27;20621;-74
2024/02/01 14:19:13;;;;;;;2.72;1.10;;;;;;;;;;5120690;27;20054;-76
2024/02/01 14:21:44;;;;;;;1.63;1.30;;;;;;;;;;5120929;27;20414;-75
2024/02/01 14:24:15;;;;;;;3.78;1.00;;;;;;;;;;5121266;27;20069;-76
2024/02/01 14:26:45;;;;;;;1.67;1.20;;;;;;;;;;5119451;27;20039;-76
2024/02/01 14:29:16;;;;;;;1.63;1.20;;;;;;;;;;5119352;27;20058;-77
2024/02/01 14:31:47;;;;;;;2.65;1.20;;;;;;;;;;5120556;27;20516;-75
2024/02/01 14:34:17;;;;;;;5.95;1.60;;;;;;;;;;5120456;27;20047;-75
2024/02/01 14:36:48;;;;;;;3.22;1.30;;;;;;;;;;5120402;27;20051;-75
2024/02/01 14:39:21;;;;;;;4.75;1.40;;;;;;;;;;5119956;27;20054;-75
2024/02/01 14:41:56;;;;;;;2.85;0.98;;;;;;;;;;5120525;27;20100;-75
2024/02/01 14:44:28;;;;;;;2.40;0.85;;;;;;;;;;5120766;27;20054;-74
2024/02/01 14:46:58;;;;;;;5.55;1.00;;;;;;;;;;5120369;27;20050;-78
2024/02/01 14:49:29;;;;;;;6.82;0.95;;;;;;;;;;5120244;27;20490;-77
2024/02/01 14:52:00;;;;;;;3.58;0.93;;;;;;;;;;5120536;27;20054;-76
2024/02/01 14:54:31;;;;;;;4.97;1.00;;;;;;;;;;5120586;27;20629;-75
2024/02/01 14:57:01;;;;;;;3.78;1.00;;;;;;;;;;5120273;27;20047;-76
2024/02/01 14:59:33;;;;;;;3.85;0.90;;;;;;;;;;5120059;27;20043;-77
2024/02/01 15:02:03;;;;;;;2.03;0.75;;;;;;;;;;5120018;27;20046;-76
2024/02/01 15:04:34;;;;;;;4.13;0.70;;;;;;;;;;5120456;27;20047;-77
2024/02/01 15:07:06;;;;;;;1.80;0.70;;;;;;;;;;5120121;28;20047;-77
2024/02/01 15:09:37;;;;;;;2.03;0.88;;;;;;;;;;5120711;28;20043;-77
2024/02/01 15:12:17;;;;;;;3.15;0.82;;;;;;;;;;5120960;27;20039;-77
2024/02/01 15:14:50;;;;;;;2.28;0.70;;;;;;;;;;5124592;27;20051;-76
2024/02/01 15:17:20;;;;;;;3.63;0.80;;;;;;;;;;5124214;27;20871;-76
2024/02/01 15:19:52;;;;;;;1.95;0.73;;;;;;;;;;5125035;27;20532;-76
2024/02/01 15:22:22;;;;;;;2.25;0.88;;;;;;;;;;5123589;27;20493;-77
2024/02/01 15:24:54;;;;;;;1.65;0.98;;;;;;;;;;5124568;27;20043;-76
2024/02/01 15:27:24;;;;;;;0.98;0.80;;;;;;;;;;5124334;27;20051;-76
2024/02/01 15:29:56;;;;;;;1.58;0.80;;;;;;;;;;5124483;27;20047;-77
2024/02/01 15:32:26;;;;;;;3.65;1.20;;;;;;;;;;5123930;27;20043;-76
2024/02/01 15:34:57;;;;;;;4.50;1.05;;;;;;;;;;5123358;27;20046;-75
2024/02/01 15:37:27;;;;;;;2.65;1.10;;;;;;;;;;5123650;27;20039;-75
2024/02/01 15:39:59;;;;;;;3.72;1.27;;;;;;;;;;5123475;27;20047;-77
2024/02/01 15:42:32;;;;;;;2.75;1.30;;;;;;;;;;5123786;27;20039;-76
2024/02/01 15:45:06;;;;;;;10.32;1.48;;;;;;;;;;5122206;27;20039;-77
2024/02/01 15:47:39;;;;;;;2.00;1.20;;;;;;;;;;5123746;27;20054;-80
2024/02/01 15:50:23;;;;;;;2.83;1.15;;;;;;;;;;5124019;27;20053;-89
2024/02/01 15:52:54;;;;;;;2.17;1.00;;;;;;;;;;5122187;27;20070;-76
2024/02/01 15:55:31;;;;;;;3.50;1.05;;;;;;;;;;5124412;27;20505;-76
2024/02/01 15:58:03;;;;;;;2.30;1.08;;;;;;;;;;5123359;27;20512;-76
2024/02/01 16:00:34;;;;;;;2.63;1.00;;;;;;;;;;5123610;27;20050;-76
2024/02/01 16:03:05;;;;;;;5.95;1.02;;;;;;;;;;5123688;27;20536;-76
2024/02/01 16:05:59;;;;;;;4.43;1.00;;;;;;;;;;5122084;27;20051;-75
2024/02/01 16:08:30;;;;;;;1.45;1.00;;;;;;;;;;5122979;27;20039;-76
2024/02/01 16:11:01;;;;;;;2.05;0.90;;;;;;;;;;5123118;27;20039;-76
2024/02/01 16:13:56;;;;;;;3.42;0.85;;;;;;;;;;5121425;27;20510;-75